Time;durP1;ratioP1;P1;durP2;ratioP2;P2;SDS_P1;SDS_P2;PMS_P1;PMS_P2;Temp;Humidity;BMP_temperature;BMP_pressure;BME280_temperature;BME280_humidity;BME280_pressure;Samples;Min_cycle;Max_cycle;Signal;HPM_P1;HPM_P2
2020/12/31 00:00:40;;;;;;;9.52;5.40;;;;;;;;;;4830725;29;20502;-88
2020/12/31 00:03:06;;;;;;;6.35;5.70;;;;;;;;;;4830523;29;20191;-89
2020/12/31 00:05:33;;;;;;;8.27;7.00;;;;;;;;;;4830726;29;20193;-89
2020/12/31 00:08:00;;;;;;;8.52;6.05;;;;;;;;;;4830582;29;20603;-89
2020/12/31 00:10:30;;;;;;;5.88;4.88;;;;;;;;;;4830740;29;20304;-90
2020/12/31 00:12:58;;;;;;;6.82;5.07;;;;;;;;;;4830512;29;20633;-91
2020/12/31 00:15:26;;;;;;;5.97;4.95;;;;;;;;;;4830830;29;20205;-89
2020/12/31 00:17:52;;;;;;;6.13;4.43;;;;;;;;;;4830651;29;20618;-88
2020/12/31 00:20:20;;;;;;;6.60;5.68;;;;;;;;;;4829007;29;20210;-86
2020/12/31 00:22:47;;;;;;;6.72;5.65;;;;;;;;;;4830186;29;20305;-84
2020/12/31 00:25:14;;;;;;;6.50;5.63;;;;;;;;;;4829730;29;20205;-84
2020/12/31 00:27:41;;;;;;;5.57;4.90;;;;;;;;;;4829563;29;20232;-84
2020/12/31 00:30:10;;;;;;;6.78;5.25;;;;;;;;;;4830449;29;20217;-84
2020/12/31 00:32:37;;;;;;;6.50;5.80;;;;;;;;;;4829877;29;20255;-84
2020/12/31 00:35:05;;;;;;;7.38;6.60;;;;;;;;;;4829331;29;20236;-87
2020/12/31 00:37:34;;;;;;;8.10;5.78;;;;;;;;;;4829560;29;20665;-85
2020/12/31 00:40:01;;;;;;;6.38;5.57;;;;;;;;;;4829952;29;20304;-84
2020/12/31 00:42:28;;;;;;;7.20;5.43;;;;;;;;;;4829492;29;20565;-86
2020/12/31 00:44:55;;;;;;;6.95;6.15;;;;;;;;;;4830287;29;20545;-89
2020/12/31 00:47:23;;;;;;;7.00;5.30;;;;;;;;;;4830478;29;20206;-85
2020/12/31 00:49:50;;;;;;;7.15;5.85;;;;;;;;;;4830223;29;20202;-87
2020/12/31 00:52:17;;;;;;;5.70;5.05;;;;;;;;;;4829449;29;20190;-86
2020/12/31 00:54:44;;;;;;;6.93;5.78;;;;;;;;;;4830168;29;20266;-86
2020/12/31 00:57:11;;;;;;;5.53;5.03;;;;;;;;;;4829881;29;20328;-86
2020/12/31 00:59:38;;;;;;;7.70;5.75;;;;;;;;;;4830011;29;20300;-86
2020/12/31 01:02:05;;;;;;;7.88;6.13;;;;;;;;;;4829229;29;20575;-85
2020/12/31 01:04:32;;;;;;;6.07;5.47;;;;;;;;;;4830000;29;20288;-88
2020/12/31 01:07:00;;;;;;;6.07;5.40;;;;;;;;;;4830168;29;20206;-91
2020/12/31 01:09:27;;;;;;;6.13;4.82;;;;;;;;;;4829627;29;20212;-86
2020/12/31 01:11:55;;;;;;;7.32;5.57;;;;;;;;;;4829320;29;20202;-87
2020/12/31 01:14:22;;;;;;;6.80;6.10;;;;;;;;;;4829638;29;20545;-85
2020/12/31 01:16:50;;;;;;;7.05;5.78;;;;;;;;;;4829877;29;20206;-87
2020/12/31 01:19:17;;;;;;;7.43;6.00;;;;;;;;;;4829764;29;20190;-87
2020/12/31 01:21:46;;;;;;;7.85;5.45;;;;;;;;;;4828582;29;20296;-86
2020/12/31 01:24:13;;;;;;;6.55;5.57;;;;;;;;;;4829650;29;20285;-86
2020/12/31 01:26:41;;;;;;;5.88;5.13;;;;;;;;;;4829669;29;20222;-85
2020/12/31 01:29:08;;;;;;;6.15;5.53;;;;;;;;;;4829708;29;20537;-87
2020/12/31 01:31:35;;;;;;;6.57;5.55;;;;;;;;;;4829210;29;20553;-86
2020/12/31 01:34:02;;;;;;;6.53;5.75;;;;;;;;;;4829644;29;20198;-87
2020/12/31 01:36:29;;;;;;;8.43;7.55;;;;;;;;;;4829719;29;20576;-87
2020/12/31 01:38:56;;;;;;;6.82;5.95;;;;;;;;;;4829545;29;20190;-86
2020/12/31 01:41:25;;;;;;;7.03;6.32;;;;;;;;;;4828870;29;20220;-87
2020/12/31 01:44:06;;;;;;;7.13;5.97;;;;;;;;;;4829451;29;20194;-87
2020/12/31 01:46:35;;;;;;;6.22;5.50;;;;;;;;;;4829226;29;20250;-87
2020/12/31 01:49:04;;;;;;;6.03;5.43;;;;;;;;;;4829577;29;20259;-86
2020/12/31 01:51:31;;;;;;;7.00;5.88;;;;;;;;;;4828707;29;20201;-86
2020/12/31 01:53:59;;;;;;;7.50;6.75;;;;;;;;;;4829225;29;20568;-86
2020/12/31 01:56:31;;;;;;;7.10;6.22;;;;;;;;;;4829294;29;20240;-87
2020/12/31 01:58:59;;;;;;;6.88;6.15;;;;;;;;;;4828836;29;20612;-86
2020/12/31 02:01:27;;;;;;;6.75;5.95;;;;;;;;;;4828765;29;20224;-88
2020/12/31 02:03:57;;;;;;;7.22;6.05;;;;;;;;;;4829234;29;20198;-87
2020/12/31 02:06:25;;;;;;;7.25;6.00;;;;;;;;;;4822837;29;20217;-88
2020/12/31 02:08:52;;;;;;;6.47;5.72;;;;;;;;;;4829725;29;20221;-88
2020/12/31 02:11:23;;;;;;;7.35;5.93;;;;;;;;;;4829525;29;20190;-87
2020/12/31 02:13:50;;;;;;;6.53;5.88;;;;;;;;;;4829452;29;20200;-87
2020/12/31 02:16:18;;;;;;;7.35;6.15;;;;;;;;;;4829152;29;20186;-86
2020/12/31 02:18:56;;;;;;;6.35;5.60;;;;;;;;;;4829365;29;20198;-86
2020/12/31 02:21:28;;;;;;;5.60;5.03;;;;;;;;;;4829322;29;20210;-86
2020/12/31 02:23:57;;;;;;;12.05;6.03;;;;;;;;;;4829055;29;20227;-86
2020/12/31 02:26:26;;;;;;;5.20;4.38;;;;;;;;;;4829221;29;20238;-87
2020/12/31 02:28:53;;;;;;;6.28;5.68;;;;;;;;;;4829306;29;20472;-86
2020/12/31 02:31:20;;;;;;;6.68;5.70;;;;;;;;;;4829230;29;20201;-87
2020/12/31 02:33:49;;;;;;;6.63;5.68;;;;;;;;;;4828912;29;20190;-87
2020/12/31 02:36:17;;;;;;;6.22;5.53;;;;;;;;;;4829245;29;20198;-87
2020/12/31 02:38:45;;;;;;;7.85;6.32;;;;;;;;;;4829240;29;20198;-88
2020/12/31 02:41:14;;;;;;;5.72;4.82;;;;;;;;;;4829063;29;20213;-87
2020/12/31 02:43:41;;;;;;;11.05;6.85;;;;;;;;;;4828793;29;20607;-86
2020/12/31 02:46:12;;;;;;;7.22;6.10;;;;;;;;;;4829089;29;20190;-88
2020/12/31 02:48:40;;;;;;;6.57;5.57;;;;;;;;;;4829006;29;20583;-94
2020/12/31 02:51:08;;;;;;;7.20;5.70;;;;;;;;;;4831912;29;20459;-90
2020/12/31 02:53:35;;;;;;;6.05;5.47;;;;;;;;;;4831812;29;20212;-88
2020/12/31 02:56:02;;;;;;;6.65;6.05;;;;;;;;;;4826511;29;20222;-89
2020/12/31 02:58:30;;;;;;;6.38;5.78;;;;;;;;;;4830990;29;20246;-91
2020/12/31 03:00:57;;;;;;;6.30;5.70;;;;;;;;;;4832335;29;20230;-93
2020/12/31 03:03:24;;;;;;;6.47;5.03;;;;;;;;;;4832769;29;20210;-91
2020/12/31 03:05:51;;;;;;;9.07;5.70;;;;;;;;;;4831747;29;20192;-91
2020/12/31 03:08:18;;;;;;;7.43;6.50;;;;;;;;;;4831965;29;20532;-93
2020/12/31 03:10:45;;;;;;;6.80;5.97;;;;;;;;;;4832353;29;20206;-89
2020/12/31 03:13:12;;;;;;;5.82;5.22;;;;;;;;;;4831793;29;20197;-88
2020/12/31 03:15:40;;;;;;;7.32;6.60;;;;;;;;;;4831151;29;20492;-87
2020/12/31 03:18:07;;;;;;;6.78;6.07;;;;;;;;;;4830987;29;20197;-87
2020/12/31 03:20:33;;;;;;;8.88;6.93;;;;;;;;;;4831121;29;20605;-88
2020/12/31 03:23:00;;;;;;;7.00;6.30;;;;;;;;;;4830726;29;20213;-86
2020/12/31 03:25:27;;;;;;;8.77;6.70;;;;;;;;;;4831281;29;20274;-87
2020/12/31 03:27:54;;;;;;;6.95;5.53;;;;;;;;;;4831026;29;20233;-88
2020/12/31 03:30:22;;;;;;;6.57;5.95;;;;;;;;;;4830977;29;20223;-89
2020/12/31 03:32:50;;;;;;;8.98;6.70;;;;;;;;;;4831354;29;20262;-87
2020/12/31 03:35:16;;;;;;;8.85;7.03;;;;;;;;;;4831290;29;20193;-87
2020/12/31 03:37:43;;;;;;;7.80;7.00;;;;;;;;;;4830692;29;20484;-87
2020/12/31 03:40:10;;;;;;;7.38;6.40;;;;;;;;;;4831183;29;20201;-87
2020/12/31 03:42:37;;;;;;;6.75;6.05;;;;;;;;;;4830956;29;20200;-88
2020/12/31 03:45:04;;;;;;;8.57;7.05;;;;;;;;;;4830925;29;20194;-87
2020/12/31 03:47:31;;;;;;;8.23;7.28;;;;;;;;;;4830503;29;20212;-88
2020/12/31 03:49:59;;;;;;;7.65;6.80;;;;;;;;;;4830837;29;20549;-88
2020/12/31 03:52:26;;;;;;;8.82;6.57;;;;;;;;;;4831078;29;20289;-87
2020/12/31 03:54:53;;;;;;;7.55;6.22;;;;;;;;;;4831083;29;20205;-87
2020/12/31 03:57:20;;;;;;;7.10;6.40;;;;;;;;;;4830300;29;20241;-86
2020/12/31 03:59:47;;;;;;;9.32;7.45;;;;;;;;;;4830708;29;20190;-87
2020/12/31 04:02:14;;;;;;;7.57;6.88;;;;;;;;;;4829447;29;20623;-86
2020/12/31 04:04:41;;;;;;;8.20;7.38;;;;;;;;;;4830617;29;20201;-87
2020/12/31 04:07:08;;;;;;;9.32;7.63;;;;;;;;;;4830258;29;20194;-88
2020/12/31 04:09:36;;;;;;;7.82;7.13;;;;;;;;;;4830884;29;20403;-88
2020/12/31 04:12:03;;;;;;;7.28;6.30;;;;;;;;;;4830853;29;20204;-86
2020/12/31 04:14:33;;;;;;;9.18;7.55;;;;;;;;;;4830718;29;20202;-87
2020/12/31 04:16:59;;;;;;;8.95;6.95;;;;;;;;;;4830184;29;20270;-86
2020/12/31 04:19:26;;;;;;;10.88;6.50;;;;;;;;;;4830560;29;20493;-87
2020/12/31 04:21:54;;;;;;;7.25;6.55;;;;;;;;;;4830508;29;20247;-85
2020/12/31 04:24:22;;;;;;;11.43;8.55;;;;;;;;;;4830531;29;20194;-86
2020/12/31 04:26:50;;;;;;;6.82;6.18;;;;;;;;;;4829918;29;20226;-85
2020/12/31 04:29:17;;;;;;;7.22;6.53;;;;;;;;;;4830406;29;20216;-86
2020/12/31 04:31:45;;;;;;;6.85;6.13;;;;;;;;;;4830161;29;20643;-86
2020/12/31 04:34:12;;;;;;;6.80;6.20;;;;;;;;;;4830381;29;20201;-87
2020/12/31 04:36:39;;;;;;;5.82;4.90;;;;;;;;;;4829841;29;20200;-86
2020/12/31 04:39:06;;;;;;;8.82;7.57;;;;;;;;;;4829979;29;20573;-86
2020/12/31 04:41:34;;;;;;;7.45;6.07;;;;;;;;;;4830068;29;20217;-87
2020/12/31 04:44:02;;;;;;;6.10;5.50;;;;;;;;;;4830049;29;20187;-86
2020/12/31 04:46:30;;;;;;;7.00;6.25;;;;;;;;;;4829929;29;20223;-88
2020/12/31 04:49:05;;;;;;;7.05;6.35;;;;;;;;;;4830305;29;20509;-88
2020/12/31 04:51:36;;;;;;;8.07;7.28;;;;;;;;;;4830064;29;20273;-88
2020/12/31 04:54:06;;;;;;;10.50;6.90;;;;;;;;;;4830054;29;20216;-88
2020/12/31 04:56:37;;;;;;;7.97;7.25;;;;;;;;;;4827310;29;20242;-87
2020/12/31 04:59:05;;;;;;;8.35;7.28;;;;;;;;;;4830041;29;20202;-86
2020/12/31 05:01:32;;;;;;;10.82;8.05;;;;;;;;;;4830039;29;20217;-88
2020/12/31 05:03:58;;;;;;;8.32;7.25;;;;;;;;;;4829557;29;20226;-87
2020/12/31 05:06:27;;;;;;;9.32;7.60;;;;;;;;;;4829425;29;20444;-86
2020/12/31 05:08:55;;;;;;;9.90;7.25;;;;;;;;;;4829804;29;20220;-87
2020/12/31 05:11:22;;;;;;;9.30;7.75;;;;;;;;;;4829286;29;20217;-87
2020/12/31 05:13:51;;;;;;;8.48;7.43;;;;;;;;;;4829353;29;20196;-83
2020/12/31 05:16:30;;;;;;;7.05;6.40;;;;;;;;;;4829220;29;20186;-85
2020/12/31 05:18:58;;;;;;;8.82;7.20;;;;;;;;;;4829382;29;20362;-86
2020/12/31 05:21:25;;;;;;;8.35;7.55;;;;;;;;;;4829339;29;20238;-84
2020/12/31 05:23:51;;;;;;;7.57;6.82;;;;;;;;;;4829297;29;20247;-85
2020/12/31 05:26:33;;;;;;;6.80;6.20;;;;;;;;;;4828940;29;20206;-84
2020/12/31 05:29:01;;;;;;;8.52;7.72;;;;;;;;;;4827128;29;20232;-85
2020/12/31 05:31:28;;;;;;;9.35;7.60;;;;;;;;;;4829109;29;20204;-84
2020/12/31 05:33:55;;;;;;;8.70;6.95;;;;;;;;;;4829138;29;20190;-84
2020/12/31 05:36:24;;;;;;;8.43;7.20;;;;;;;;;;4828689;29;20202;-85
2020/12/31 05:39:04;;;;;;;9.10;8.15;;;;;;;;;;4829362;29;20204;-83
2020/12/31 05:41:33;;;;;;;9.15;8.23;;;;;;;;;;4829194;29;20300;-86
2020/12/31 05:44:05;;;;;;;7.97;7.18;;;;;;;;;;4828922;29;20277;-84
2020/12/31 05:46:32;;;;;;;9.02;8.13;;;;;;;;;;4783186;29;20205;-86
2020/12/31 05:49:00;;;;;;;10.23;9.23;;;;;;;;;;4828965;29;20579;-86
2020/12/31 05:51:29;;;;;;;8.50;7.65;;;;;;;;;;4829111;29;20221;-85
2020/12/31 05:54:06;;;;;;;9.27;8.27;;;;;;;;;;4829292;29;20258;-87
2020/12/31 05:56:35;;;;;;;9.30;7.65;;;;;;;;;;4828114;29;20233;-87
2020/12/31 05:59:20;;;;;;;10.38;9.05;;;;;;;;;;4828411;29;20205;-87
2020/12/31 06:01:56;;;;;;;11.32;8.90;;;;;;;;;;4828377;29;20206;-88
2020/12/31 06:04:45;;;;;;;10.98;8.40;;;;;;;;;;4828419;29;20223;-88
2020/12/31 06:07:32;;;;;;;9.20;7.97;;;;;;;;;;4827871;29;20634;-89
2020/12/31 06:10:06;;;;;;;8.73;7.82;;;;;;;;;;4828498;29;20213;-88
2020/12/31 06:12:48;;;;;;;9.07;8.13;;;;;;;;;;4828264;29;20193;-88
2020/12/31 06:15:21;;;;;;;10.20;8.45;;;;;;;;;;4828327;29;20194;-89
2020/12/31 06:17:49;;;;;;;12.25;10.57;;;;;;;;;;4827878;29;20205;-88
2020/12/31 06:20:18;;;;;;;10.32;8.52;;;;;;;;;;4828153;29;20519;-89
2020/12/31 06:23:07;;;;;;;9.18;8.30;;;;;;;;;;4827943;29;20213;-88
2020/12/31 06:25:43;;;;;;;9.32;7.35;;;;;;;;;;4829049;29;20210;-88
2020/12/31 06:28:19;;;;;;;8.88;7.50;;;;;;;;;;4830820;29;20236;-89
2020/12/31 06:30:48;;;;;;;10.00;8.25;;;;;;;;;;4831227;29;20209;-89
2020/12/31 06:33:25;;;;;;;8.60;7.05;;;;;;;;;;4831378;29;20240;-88
2020/12/31 06:35:57;;;;;;;11.07;8.80;;;;;;;;;;4831153;29;20273;-89
2020/12/31 06:38:34;;;;;;;9.10;7.50;;;;;;;;;;4831395;29;20186;-89
2020/12/31 06:41:02;;;;;;;10.57;8.05;;;;;;;;;;4831244;29;20204;-89
2020/12/31 06:43:34;;;;;;;9.02;7.57;;;;;;;;;;4831792;29;20214;-89
2020/12/31 06:46:17;;;;;;;8.60;7.80;;;;;;;;;;4832179;29;20507;-89
2020/12/31 06:48:49;;;;;;;9.40;8.50;;;;;;;;;;4831653;29;20210;-89
2020/12/31 06:51:25;;;;;;;8.38;7.43;;;;;;;;;;4831658;29;20583;-87
2020/12/31 06:53:52;;;;;;;9.07;8.13;;;;;;;;;;4831410;29;20190;-87
2020/12/31 06:56:45;;;;;;;9.77;8.77;;;;;;;;;;4811150;29;606829;-88
2020/12/31 06:59:29;;;;;;;8.13;7.32;;;;;;;;;;4832401;29;20467;-89
2020/12/31 07:01:58;;;;;;;9.73;8.18;;;;;;;;;;4832955;29;20584;-89
2020/12/31 07:04:32;;;;;;;9.63;7.68;;;;;;;;;;4832705;29;20209;-89
2020/12/31 07:07:00;;;;;;;12.90;9.10;;;;;;;;;;4832757;29;20213;-90
2020/12/31 07:09:33;;;;;;;13.43;9.27;;;;;;;;;;4832929;29;20224;-88
2020/12/31 07:12:03;;;;;;;9.70;7.53;;;;;;;;;;4832885;29;20210;-88
2020/12/31 07:14:31;;;;;;;8.35;7.22;;;;;;;;;;4831813;29;20560;-87
2020/12/31 07:17:01;;;;;;;10.13;8.77;;;;;;;;;;4833076;29;20217;-88
2020/12/31 07:19:41;;;;;;;9.13;8.23;;;;;;;;;;4832017;29;20209;-89
2020/12/31 07:22:22;;;;;;;8.88;7.10;;;;;;;;;;4832208;29;20233;-89
2020/12/31 07:24:55;;;;;;;9.85;7.72;;;;;;;;;;4832736;29;20214;-89
2020/12/31 07:27:27;;;;;;;9.77;8.55;;;;;;;;;;4831764;29;20222;-88
2020/12/31 07:30:14;;;;;;;7.88;7.07;;;;;;;;;;4831732;29;20190;-90
2020/12/31 07:32:57;;;;;;;13.20;8.52;;;;;;;;;;4832198;29;20194;-88
2020/12/31 07:35:37;;;;;;;10.32;9.00;;;;;;;;;;4832299;29;20198;-89
2020/12/31 07:38:07;;;;;;;10.75;8.40;;;;;;;;;;4832030;29;20205;-89
2020/12/31 07:40:40;;;;;;;11.48;9.23;;;;;;;;;;4831764;29;20209;-89
2020/12/31 07:43:10;;;;;;;9.73;7.72;;;;;;;;;;4831901;29;20228;-90
2020/12/31 07:45:38;;;;;;;9.60;7.95;;;;;;;;;;4831678;29;20297;-87
2020/12/31 07:48:06;;;;;;;11.25;8.48;;;;;;;;;;4831636;29;20459;-89
2020/12/31 07:50:33;;;;;;;9.23;8.13;;;;;;;;;;4831594;29;20186;-89
2020/12/31 07:53:00;;;;;;;9.43;8.52;;;;;;;;;;4831565;29;20198;-89
2020/12/31 07:55:27;;;;;;;10.48;8.00;;;;;;;;;;4832274;29;20233;-89
2020/12/31 07:57:54;;;;;;;9.13;8.18;;;;;;;;;;4831506;29;20217;-90
2020/12/31 08:00:23;;;;;;;8.45;7.07;;;;;;;;;;4831843;29;20206;-90
2020/12/31 08:02:52;;;;;;;10.40;8.38;;;;;;;;;;4831419;29;20593;-90
2020/12/31 08:05:21;;;;;;;11.18;7.97;;;;;;;;;;4831227;29;20194;-86
2020/12/31 08:07:53;;;;;;;9.48;7.32;;;;;;;;;;4831959;29;20550;-87
2020/12/31 08:10:20;;;;;;;6.88;6.03;;;;;;;;;;4830917;29;20189;-86
2020/12/31 08:12:55;;;;;;;8.80;7.90;;;;;;;;;;4831243;29;20198;-89
2020/12/31 08:15:23;;;;;;;8.23;7.28;;;;;;;;;;4831254;29;20204;-88
2020/12/31 08:17:52;;;;;;;14.00;7.80;;;;;;;;;;4831136;29;20253;-90
2020/12/31 08:20:21;;;;;;;9.00;7.28;;;;;;;;;;4831259;29;20217;-90
2020/12/31 08:22:52;;;;;;;9.68;7.50;;;;;;;;;;4830995;29;20232;-88
2020/12/31 08:25:25;;;;;;;8.45;6.78;;;;;;;;;;4830787;29;20573;-91
2020/12/31 08:27:54;;;;;;;10.82;8.65;;;;;;;;;;4830797;29;20218;-89
2020/12/31 08:30:22;;;;;;;7.38;6.68;;;;;;;;;;4831129;29;20549;-89
2020/12/31 08:32:58;;;;;;;9.23;6.68;;;;;;;;;;4831395;29;20527;-90
2020/12/31 08:35:29;;;;;;;7.97;6.93;;;;;;;;;;4831322;29;20486;-88
2020/12/31 08:38:14;;;;;;;8.82;7.38;;;;;;;;;;4831018;29;20214;-89
2020/12/31 08:40:44;;;;;;;11.60;8.32;;;;;;;;;;4830563;29;20541;-89
2020/12/31 08:43:19;;;;;;;8.55;7.72;;;;;;;;;;4830715;29;20604;-89
2020/12/31 08:45:46;;;;;;;7.30;6.45;;;;;;;;;;4830731;29;20197;-88
2020/12/31 08:48:21;;;;;;;7.72;6.78;;;;;;;;;;4830046;29;20461;-88
2020/12/31 08:51:05;;;;;;;7.05;6.05;;;;;;;;;;4830690;29;20255;-89
2020/12/31 08:53:47;;;;;;;8.25;7.20;;;;;;;;;;4831093;29;20202;-89
2020/12/31 08:56:14;;;;;;;9.30;6.95;;;;;;;;;;4830426;29;20304;-90
2020/12/31 08:58:41;;;;;;;8.45;7.57;;;;;;;;;;4830656;29;20276;-89
2020/12/31 09:01:12;;;;;;;7.68;6.75;;;;;;;;;;4830507;29;20212;-89
2020/12/31 09:03:40;;;;;;;9.90;6.13;;;;;;;;;;4829963;29;20281;-88
2020/12/31 09:06:08;;;;;;;9.68;7.50;;;;;;;;;;4830538;29;20198;-90
2020/12/31 09:08:35;;;;;;;7.97;6.53;;;;;;;;;;4831104;29;20202;-90
2020/12/31 09:11:05;;;;;;;7.65;6.72;;;;;;;;;;4830839;29;20220;-90
2020/12/31 09:13:36;;;;;;;7.65;6.85;;;;;;;;;;4830311;29;20201;-90
2020/12/31 09:16:11;;;;;;;7.20;6.00;;;;;;;;;;4830463;29;20231;-90
2020/12/31 09:18:38;;;;;;;7.97;7.15;;;;;;;;;;4830263;29;20193;-89
2020/12/31 09:21:05;;;;;;;6.85;6.15;;;;;;;;;;4830000;29;20186;-88
2020/12/31 09:23:33;;;;;;;9.55;8.18;;;;;;;;;;4830006;29;20229;-89
2020/12/31 09:26:00;;;;;;;8.05;7.28;;;;;;;;;;4830199;29;20201;-93
2020/12/31 09:28:28;;;;;;;7.28;6.05;;;;;;;;;;4830145;29;20400;-92
2020/12/31 09:30:56;;;;;;;8.30;7.45;;;;;;;;;;4830846;29;20210;-93
2020/12/31 09:33:26;;;;;;;7.35;6.18;;;;;;;;;;4830560;29;20190;-94
2020/12/31 09:35:53;;;;;;;6.80;6.10;;;;;;;;;;4831895;29;20206;-92
2020/12/31 09:38:20;;;;;;;7.47;6.60;;;;;;;;;;4830437;29;20582;-92
2020/12/31 09:40:54;;;;;;;6.40;5.75;;;;;;;;;;4830155;29;20311;-92
2020/12/31 09:43:21;;;;;;;7.50;6.00;;;;;;;;;;4830731;29;20214;-93
2020/12/31 09:45:48;;;;;;;6.88;5.97;;;;;;;;;;4830880;29;20560;-93
2020/12/31 09:48:15;;;;;;;5.78;5.18;;;;;;;;;;4830520;29;20281;-93
2020/12/31 09:50:42;;;;;;;5.68;5.07;;;;;;;;;;4830624;29;20482;-92
2020/12/31 09:53:09;;;;;;;6.10;5.15;;;;;;;;;;4830350;29;20202;-94
2020/12/31 09:55:45;;;;;;;6.25;5.43;;;;;;;;;;4829998;29;20316;-94
2020/12/31 09:58:13;;;;;;;7.13;5.72;;;;;;;;;;4829958;29;20245;-89
2020/12/31 10:00:39;;;;;;;6.00;5.35;;;;;;;;;;4829272;29;20210;-86
2020/12/31 10:03:06;;;;;;;6.25;4.93;;;;;;;;;;4829017;29;20505;-85
2020/12/31 10:05:33;;;;;;;5.78;4.90;;;;;;;;;;4829110;29;20209;-86
2020/12/31 10:08:00;;;;;;;6.75;5.50;;;;;;;;;;4828986;29;20218;-87
2020/12/31 10:10:27;;;;;;;7.47;6.32;;;;;;;;;;4828958;29;20217;-85
2020/12/31 10:12:54;;;;;;;7.18;6.10;;;;;;;;;;4829219;29;20194;-86
2020/12/31 10:15:22;;;;;;;6.78;5.75;;;;;;;;;;4829574;29;20198;-85
2020/12/31 10:17:49;;;;;;;7.32;6.20;;;;;;;;;;4829311;29;20193;-86
2020/12/31 10:20:16;;;;;;;6.07;5.47;;;;;;;;;;4829014;29;20190;-86
2020/12/31 10:22:43;;;;;;;6.60;6.05;;;;;;;;;;4829339;29;20212;-88
2020/12/31 10:25:09;;;;;;;7.72;6.13;;;;;;;;;;4829295;29;20264;-88
2020/12/31 10:27:36;;;;;;;5.75;5.15;;;;;;;;;;4829155;29;20234;-88
2020/12/31 10:30:04;;;;;;;6.35;5.68;;;;;;;;;;4829242;29;20208;-89
2020/12/31 10:32:32;;;;;;;5.35;4.85;;;;;;;;;;4829971;29;20197;-86
2020/12/31 10:34:59;;;;;;;5.78;5.00;;;;;;;;;;4829021;29;20212;-86
2020/12/31 10:37:26;;;;;;;5.75;4.82;;;;;;;;;;4829209;29;20190;-87
2020/12/31 10:39:53;;;;;;;8.30;5.82;;;;;;;;;;4828820;29;20621;-87
2020/12/31 10:42:20;;;;;;;7.85;4.70;;;;;;;;;;4828789;29;20196;-88
2020/12/31 10:44:47;;;;;;;6.18;5.35;;;;;;;;;;4829053;29;20216;-87
2020/12/31 10:47:14;;;;;;;5.43;4.93;;;;;;;;;;4829884;29;20212;-88
2020/12/31 10:49:41;;;;;;;4.97;4.47;;;;;;;;;;4828854;29;20206;-88
2020/12/31 10:52:08;;;;;;;6.13;5.13;;;;;;;;;;4828768;29;20482;-87
2020/12/31 10:54:35;;;;;;;7.10;6.35;;;;;;;;;;4829189;29;20449;-86
2020/12/31 10:57:02;;;;;;;6.00;5.38;;;;;;;;;;4829123;29;20234;-88
2020/12/31 10:59:29;;;;;;;5.28;4.80;;;;;;;;;;4828902;29;20198;-88
2020/12/31 11:01:56;;;;;;;7.22;5.47;;;;;;;;;;4828420;29;20190;-86
2020/12/31 11:04:23;;;;;;;5.70;4.97;;;;;;;;;;4827833;29;20282;-86
2020/12/31 11:06:51;;;;;;;7.18;6.07;;;;;;;;;;4828040;29;20208;-87
2020/12/31 11:09:18;;;;;;;8.57;5.13;;;;;;;;;;4827026;29;20206;-86
2020/12/31 11:11:45;;;;;;;5.90;5.30;;;;;;;;;;4826828;29;20205;-87
2020/12/31 11:14:12;;;;;;;6.43;5.28;;;;;;;;;;4831233;29;20187;-88
2020/12/31 11:16:39;;;;;;;6.20;5.53;;;;;;;;;;4831457;29;20205;-85
2020/12/31 11:19:07;;;;;;;6.10;5.50;;;;;;;;;;4826673;29;20477;-86
2020/12/31 11:21:34;;;;;;;5.25;4.75;;;;;;;;;;4831073;29;20553;-86
2020/12/31 11:24:01;;;;;;;5.38;4.72;;;;;;;;;;4830831;29;20210;-86
2020/12/31 11:26:28;;;;;;;7.28;5.68;;;;;;;;;;4831046;29;20610;-86
2020/12/31 11:28:55;;;;;;;5.75;5.00;;;;;;;;;;4831291;29;20568;-86
2020/12/31 11:31:26;;;;;;;5.78;5.18;;;;;;;;;;4831195;29;20275;-88
2020/12/31 11:33:55;;;;;;;5.50;4.95;;;;;;;;;;4831392;29;20441;-86
2020/12/31 11:36:22;;;;;;;5.70;5.13;;;;;;;;;;4830836;29;20193;-85
2020/12/31 11:38:50;;;;;;;6.00;5.32;;;;;;;;;;4830849;29;20190;-85
2020/12/31 11:41:18;;;;;;;4.80;4.40;;;;;;;;;;4831075;29;20210;-85
2020/12/31 11:43:45;;;;;;;5.32;4.82;;;;;;;;;;4830486;29;20227;-86
2020/12/31 11:46:13;;;;;;;6.28;5.28;;;;;;;;;;4831413;29;20213;-87
2020/12/31 11:48:40;;;;;;;7.25;4.82;;;;;;;;;;4831212;29;20541;-87
2020/12/31 11:51:10;;;;;;;5.50;5.00;;;;;;;;;;4831088;29;20190;-88
2020/12/31 11:53:37;;;;;;;6.78;5.25;;;;;;;;;;4831039;29;20201;-86
2020/12/31 11:56:06;;;;;;;5.28;4.78;;;;;;;;;;4830763;29;20243;-86
2020/12/31 11:58:34;;;;;;;8.50;5.22;;;;;;;;;;4831271;29;20226;-85
2020/12/31 12:01:01;;;;;;;5.97;5.40;;;;;;;;;;4831463;29;20194;-91
2020/12/31 12:03:29;;;;;;;5.65;4.72;;;;;;;;;;4840154;29;20214;-90
2020/12/31 12:05:56;;;;;;;5.15;4.65;;;;;;;;;;4834966;29;20273;-92
2020/12/31 12:08:46;;;;;;;4.72;4.22;;;;;;;;;;4873347;24;20247;-91
2020/12/31 12:11:20;;;;;;;4.93;4.43;;;;;;;;;;4810884;29;20214;-92
2020/12/31 12:13:49;;;;;;;5.95;4.82;;;;;;;;;;4829981;29;20487;-93
2020/12/31 12:16:38;;;;;;;4.80;4.35;;;;;;;;;;4830428;29;20276;-91
2020/12/31 12:19:23;;;;;;;6.07;5.40;;;;;;;;;;4827142;29;20213;-93
2020/12/31 12:21:59;;;;;;;5.47;4.45;;;;;;;;;;4830338;29;20194;-92
2020/12/31 12:24:32;;;;;;;6.65;5.00;;;;;;;;;;4830101;29;20213;-92
2020/12/31 12:27:00;;;;;;;5.47;4.93;;;;;;;;;;4832062;29;20682;-93
2020/12/31 12:29:29;;;;;;;8.13;5.85;;;;;;;;;;4831749;29;20254;-93
2020/12/31 12:31:56;;;;;;;8.45;6.00;;;;;;;;;;4831443;29;20214;-89
2020/12/31 12:34:23;;;;;;;6.68;5.97;;;;;;;;;;4830920;29;20523;-88
2020/12/31 12:36:50;;;;;;;6.10;5.40;;;;;;;;;;4830716;29;20270;-89
2020/12/31 12:39:17;;;;;;;7.72;6.05;;;;;;;;;;4817284;29;20237;-89
2020/12/31 12:41:45;;;;;;;6.88;5.97;;;;;;;;;;4824861;29;20278;-88
2020/12/31 12:44:12;;;;;;;6.75;6.05;;;;;;;;;;4830432;29;20210;-89
2020/12/31 12:46:40;;;;;;;9.35;7.38;;;;;;;;;;4830733;29;20198;-89
2020/12/31 12:49:07;;;;;;;5.65;4.97;;;;;;;;;;4830481;29;20202;-90
2020/12/31 12:51:35;;;;;;;6.63;5.40;;;;;;;;;;4830863;29;20191;-89
2020/12/31 12:54:02;;;;;;;7.57;6.57;;;;;;;;;;4830485;29;20208;-89
2020/12/31 12:56:29;;;;;;;7.03;6.40;;;;;;;;;;4830120;29;20182;-94
2020/12/31 12:58:56;;;;;;;6.45;5.13;;;;;;;;;;4830503;29;20292;-91
2020/12/31 13:01:23;;;;;;;5.80;4.75;;;;;;;;;;4821938;29;20206;-92
2020/12/31 13:03:51;;;;;;;5.40;4.90;;;;;;;;;;4812399;29;20211;-92
2020/12/31 13:06:21;;;;;;;5.07;4.65;;;;;;;;;;4823431;29;20580;-93
2020/12/31 13:12:15;;;;;;;8.70;7.15;;;;;;;;;;4758326;30;20200;-90
2020/12/31 13:14:42;;;;;;;8.70;7.80;;;;;;;;;;4756546;30;20205;-89
2020/12/31 13:17:09;;;;;;;6.93;6.22;;;;;;;;;;4756283;30;20597;-90
2020/12/31 13:19:37;;;;;;;6.00;5.35;;;;;;;;;;4756815;30;20213;-91
2020/12/31 13:22:04;;;;;;;7.65;6.88;;;;;;;;;;4757058;30;20470;-91
2020/12/31 13:24:31;;;;;;;5.78;4.57;;;;;;;;;;4756967;30;20273;-92
2020/12/31 13:26:58;;;;;;;5.28;4.78;;;;;;;;;;4757065;30;20484;-87
2020/12/31 13:29:25;;;;;;;5.10;4.63;;;;;;;;;;4756495;30;20209;-89
2020/12/31 13:31:52;;;;;;;4.57;4.10;;;;;;;;;;4756463;30;20213;-89
2020/12/31 13:34:22;;;;;;;5.20;4.70;;;;;;;;;;4756464;30;20455;-91
2020/12/31 13:36:51;;;;;;;8.55;7.60;;;;;;;;;;4756780;30;20220;-90
2020/12/31 13:39:20;;;;;;;6.93;5.88;;;;;;;;;;4756768;30;20233;-91
2020/12/31 13:41:51;;;;;;;6.10;5.07;;;;;;;;;;4756724;30;20216;-92
2020/12/31 13:44:23;;;;;;;9.02;8.02;;;;;;;;;;4756427;30;20232;-90
2020/12/31 13:46:51;;;;;;;8.35;7.57;;;;;;;;;;4788892;30;20286;-92
2020/12/31 13:49:19;;;;;;;5.80;5.32;;;;;;;;;;4793617;30;20213;-90
2020/12/31 13:51:56;;;;;;;5.18;4.60;;;;;;;;;;4793218;30;20282;-91
2020/12/31 13:54:23;;;;;;;6.30;5.10;;;;;;;;;;4793616;30;20211;-91
2020/12/31 13:56:50;;;;;;;4.68;4.28;;;;;;;;;;4793273;30;20584;-91
2020/12/31 13:59:17;;;;;;;4.55;4.10;;;;;;;;;;4793150;30;20226;-89
2020/12/31 14:01:44;;;;;;;6.60;5.93;;;;;;;;;;4793230;30;20203;-87
2020/12/31 14:04:14;;;;;;;5.50;4.63;;;;;;;;;;4793319;30;20565;-90
2020/12/31 14:06:41;;;;;;;4.63;4.22;;;;;;;;;;4794386;30;20242;-89
2020/12/31 14:09:10;;;;;;;5.97;5.38;;;;;;;;;;4793244;29;20235;-91
2020/12/31 14:11:37;;;;;;;5.90;5.30;;;;;;;;;;4794055;30;20203;-90
2020/12/31 14:14:05;;;;;;;6.57;5.88;;;;;;;;;;4794245;30;20519;-90
2020/12/31 14:16:33;;;;;;;6.82;5.53;;;;;;;;;;4793633;30;20294;-91
2020/12/31 14:19:00;;;;;;;5.78;5.10;;;;;;;;;;4793726;30;20546;-90
2020/12/31 14:21:30;;;;;;;5.45;4.93;;;;;;;;;;4792988;30;20191;-92
2020/12/31 14:23:57;;;;;;;7.22;5.70;;;;;;;;;;4793336;30;20207;-91
2020/12/31 14:26:25;;;;;;;5.30;4.75;;;;;;;;;;4793251;30;20242;-89
2020/12/31 14:28:53;;;;;;;8.80;6.20;;;;;;;;;;4792853;30;20278;-87
2020/12/31 14:31:20;;;;;;;6.03;5.35;;;;;;;;;;4793170;30;20214;-88
2020/12/31 14:33:47;;;;;;;7.65;6.75;;;;;;;;;;4793462;30;20213;-87
2020/12/31 14:36:14;;;;;;;8.55;5.80;;;;;;;;;;4793010;30;20195;-88
2020/12/31 14:38:41;;;;;;;6.60;5.72;;;;;;;;;;4792832;29;20238;-87
2020/12/31 14:41:08;;;;;;;6.93;6.20;;;;;;;;;;4793331;30;20199;-87
2020/12/31 14:43:35;;;;;;;5.82;5.22;;;;;;;;;;4793641;30;20215;-88
2020/12/31 14:46:02;;;;;;;10.13;6.10;;;;;;;;;;4792884;29;20225;-88
2020/12/31 14:48:30;;;;;;;5.80;5.18;;;;;;;;;;4797056;30;20188;-87
2020/12/31 14:50:57;;;;;;;7.30;4.90;;;;;;;;;;4796904;30;20499;-87
2020/12/31 14:53:24;;;;;;;6.22;5.40;;;;;;;;;;4796343;30;20195;-88
2020/12/31 14:55:51;;;;;;;5.05;4.55;;;;;;;;;;4796985;30;20217;-87